Time,TemperatureF,DewpointF,PressureIn,WindDirection,WindDirectionDegrees,WindSpeedMPH,WindSpeedGustMPH,Humidity,HourlyPrecipIn,Conditions,Clouds,dailyrainin,SoftwareType,DateUTC
2013-05-30 00:03:00,43.2,33.0,29.99,WNW,293,0.2,3.8,67,0.00,,,0.00,WUHU216HW,2013-05-30 07:03:00,
2013-05-30 00:08:00,43.2,33.0,29.99,East,90,1.3,3.1,67,0.00,,,0.00,WUHU216HW,2013-05-30 07:08:00,
2013-05-30 00:13:00,43.0,32.9,29.99,SE,135,0.0,1.6,67,0.00,,,0.00,WUHU216HW,2013-05-30 07:13:00,
2013-05-30 00:18:00,42.8,32.7,29.99,NE,45,0.0,1.1,67,0.00,,,0.00,WUHU216HW,2013-05-30 07:18:00,
2013-05-30 00:23:00,42.8,32.7,29.99,East,90,0.2,0.9,67,0.00,,,0.00,WUHU216HW,2013-05-30 07:23:00,
2013-05-30 00:28:00,42.7,32.5,29.99,NE,45,1.1,1.1,67,0.00,,,0.00,WUHU216HW,2013-05-30 07:28:00,
2013-05-30 00:33:00,42.5,32.3,29.99,NNE,23,0.4,1.1,67,0.00,,,0.00,WUHU216HW,2013-05-30 07:33:00,
2013-05-30 00:38:00,42.5,32.3,29.99,NE,45,0.7,0.7,67,0.00,,,0.00,WUHU216HW,2013-05-30 07:38:00,
2013-05-30 00:43:00,42.5,32.3,29.99,SE,135,0.9,0.9,67,0.00,,,0.00,WUHU216HW,2013-05-30 07:43:00,
2013-05-30 00:48:00,42.3,32.5,29.99,SE,135,0.0,0.9,68,0.00,,,0.00,WUHU216HW,2013-05-30 07:48:00,
2013-05-30 00:53:00,42.1,32.0,30.00,NW,315,0.2,0.9,67,0.00,,,0.00,WUHU216HW,2013-05-30 07:53:00,
2013-05-30 00:58:00,41.9,32.1,29.99,SSW,203,1.1,1.3,68,0.00,,,0.00,WUHU216HW,2013-05-30 07:58:00,
2013-05-30 01:03:00,41.8,31.6,30.00,NW,315,0.0,1.3,67,0.00,,,0.00,WUHU216HW,2013-05-30 08:03:00,
2013-05-30 01:08:00,41.6,31.4,30.00,North,0,0.9,1.1,67,0.00,,,0.00,WUHU216HW,2013-05-30 08:08:00,
2013-05-30 01:13:00,41.4,31.2,30.00,WSW,248,0.0,1.8,67,0.00,,,0.00,WUHU216HW,2013-05-30 08:13:00,
2013-05-30 01:18:00,41.2,31.1,29.99,NNE,23,2.2,2.2,67,0.00,,,0.00,WUHU216HW,2013-05-30 08:18:00,
2013-05-30 01:23:00,41.0,31.3,30.00,ENE,68,0.9,2.7,68,0.00,,,0.00,WUHU216HW,2013-05-30 08:23:00,
2013-05-30 01:28:00,41.0,31.3,30.00,East,90,0.9,2.7,68,0.00,,,0.00,WUHU216HW,2013-05-30 08:28:00,
2013-05-30 01:33:00,41.0,31.3,29.99,ENE,68,4.5,4.5,68,0.00,,,0.00,WUHU216HW,2013-05-30 08:33:00,
2013-05-30 01:38:00,41.0,31.7,30.00,SE,135,0.9,4.5,69,0.00,,,0.00,WUHU216HW,2013-05-30 08:38:00,
2013-05-30 01:43:00,40.9,31.5,30.00,ENE,68,4.3,4.3,69,0.00,,,0.00,WUHU216HW,2013-05-30 08:43:00,
2013-05-30 01:48:00,40.9,31.5,30.00,ENE,68,1.1,4.3,69,0.00,,,0.00,WUHU216HW,2013-05-30 08:48:00,
2013-05-30 01:53:00,40.9,31.5,30.00,NE,45,1.1,2.5,69,0.00,,,0.00,WUHU216HW,2013-05-30 08:53:00,
2013-05-30 01:58:00,40.7,31.7,30.00,ENE,68,1.3,2.5,70,0.00,,,0.00,WUHU216HW,2013-05-30 08:58:00,
2013-05-30 02:03:00,40.7,31.7,30.00,ENE,68,0.7,2.0,70,0.00,,,0.00,WUHU216HW,2013-05-30 09:03:00,
2013-05-30 02:09:00,40.7,31.7,29.99,ENE,68,0.4,1.6,70,0.00,,,0.00,WUHU216HW,2013-05-30 09:09:00,
2013-05-30 02:14:00,40.5,31.5,29.99,NE,45,0.9,1.6,70,0.00,,,0.00,WUHU216HW,2013-05-30 09:14:00,
2013-05-30 02:19:00,40.1,31.5,30.00,North,0,1.1,1.6,71,0.00,,,0.00,WUHU216HW,2013-05-30 09:19:00,
2013-05-30 02:24:00,40.0,31.3,30.00,NE,45,1.1,2.7,71,0.00,,,0.00,WUHU216HW,2013-05-30 09:24:00,
2013-05-30 02:29:00,40.0,31.3,30.00,ENE,68,0.9,2.7,71,0.00,,,0.00,WUHU216HW,2013-05-30 09:29:00,
2013-05-30 02:34:00,40.0,31.3,30.00,NE,45,0.9,2.5,71,0.00,,,0.00,WUHU216HW,2013-05-30 09:34:00,
2013-05-30 02:39:00,40.0,31.3,30.01,ENE,68,0.9,1.8,71,0.00,,,0.00,WUHU216HW,2013-05-30 09:39:00,
2013-05-30 02:44:00,40.0,31.3,30.00,NE,45,0.4,1.1,71,0.00,,,0.00,WUHU216HW,2013-05-30 09:44:00,
2013-05-30 02:49:00,40.0,31.3,30.01,ESE,113,0.4,1.1,71,0.00,,,0.00,WUHU216HW,2013-05-30 09:49:00,
2013-05-30 02:54:00,40.0,31.3,30.01,ENE,68,0.2,0.9,71,0.00,,,0.00,WUHU216HW,2013-05-30 09:54:00,
2013-05-30 02:59:00,40.0,31.3,30.00,ENE,68,0.0,0.4,71,0.00,,,0.00,WUHU216HW,2013-05-30 09:59:00,
2013-05-30 03:04:00,39.8,31.2,30.00,ESE,113,0.4,0.4,71,0.00,,,0.00,WUHU216HW,2013-05-30 10:04:00,
2013-05-30 03:09:00,39.8,31.2,30.00,ESE,113,0.2,0.4,71,0.00,,,0.00,WUHU216HW,2013-05-30 10:09:00,
2013-05-30 03:15:00,39.6,31.0,30.00,ESE,113,1.8,1.8,71,0.00,,,0.00,WUHU216HW,2013-05-30 10:15:00,
2013-05-30 03:20:00,39.4,30.8,30.00,East,90,0.4,1.8,71,0.00,,,0.00,WUHU216HW,2013-05-30 10:20:00,
2013-05-30 03:25:00,39.2,30.6,30.00,ESE,113,0.4,1.1,71,0.00,,,0.00,WUHU216HW,2013-05-30 10:25:00,
2013-05-30 03:30:00,39.2,31.0,30.00,ESE,113,0.0,0.7,72,0.00,,,0.00,WUHU216HW,2013-05-30 10:30:00,
2013-05-30 03:35:00,38.3,30.1,30.00,WSW,248,0.4,0.7,72,0.00,,,0.00,WUHU216HW,2013-05-30 10:35:00,
2013-05-30 03:40:00,37.4,29.6,30.00,North,0,0.9,1.1,73,0.00,,,0.00,WUHU216HW,2013-05-30 10:40:00,
2013-05-30 03:45:00,37.1,29.3,30.00,WSW,248,0.0,1.1,73,0.00,,,0.00,WUHU216HW,2013-05-30 10:45:00,
2013-05-30 03:50:00,37.1,29.5,30.00,North,0,0.0,0.7,74,0.00,,,0.00,WUHU216HW,2013-05-30 10:50:00,
2013-05-30 03:55:00,37.3,29.7,30.00,NNW,338,0.0,0.7,74,0.00,,,0.00,WUHU216HW,2013-05-30 10:55:00,
2013-05-30 04:00:00,37.4,29.9,30.00,SE,135,0.0,0.4,74,0.00,,,0.00,WUHU216HW,2013-05-30 11:00:00,
2013-05-30 04:05:00,37.4,29.9,30.00,ENE,68,0.4,0.7,74,0.00,,,0.00,WUHU216HW,2013-05-30 11:05:00,
2013-05-30 04:10:00,37.4,29.9,30.01,East,90,0.4,0.7,74,0.00,,,0.00,WUHU216HW,2013-05-30 11:10:00,
2013-05-30 04:15:00,37.4,29.9,30.01,ENE,68,0.4,1.1,74,0.00,,,0.00,WUHU216HW,2013-05-30 11:15:00,
2013-05-30 04:20:00,37.4,29.9,30.01,East,90,0.9,1.1,74,0.00,,,0.00,WUHU216HW,2013-05-30 11:20:00,
2013-05-30 04:25:00,37.4,29.9,30.01,ENE,68,0.2,1.1,74,0.00,,,0.00,WUHU216HW,2013-05-30 11:25:00,
2013-05-30 04:30:00,37.4,29.9,30.01,East,90,0.4,1.1,74,0.00,,,0.00,WUHU216HW,2013-05-30 11:30:00,
2013-05-30 04:35:00,37.4,29.9,30.02,NE,45,0.0,0.9,74,0.00,,,0.00,WUHU216HW,2013-05-30 11:35:00,
2013-05-30 04:40:00,37.4,29.9,30.01,NE,45,0.0,0.4,74,0.00,,,0.00,WUHU216HW,2013-05-30 11:40:00,
2013-05-30 04:45:00,37.4,29.9,30.01,ENE,68,0.0,0.4,74,0.00,,,0.00,WUHU216HW,2013-05-30 11:45:00,
2013-05-30 04:50:00,37.4,29.9,30.01,East,90,0.4,1.1,74,0.00,,,0.00,WUHU216HW,2013-05-30 11:50:00,
2013-05-30 04:55:00,37.4,29.9,30.01,ESE,113,0.4,1.1,74,0.00,,,0.00,WUHU216HW,2013-05-30 11:55:00,
2013-05-30 05:00:00,37.4,29.9,30.01,East,90,0.0,0.7,74,0.00,,,0.00,WUHU216HW,2013-05-30 12:00:00,
2013-05-30 05:05:00,37.4,29.9,30.01,East,90,0.4,0.7,74,0.00,,,0.00,WUHU216HW,2013-05-30 12:05:00,
2013-05-30 05:10:00,37.1,29.5,30.01,SE,135,0.0,0.4,74,0.00,,,0.00,WUHU216HW,2013-05-30 12:10:00,
2013-05-30 05:15:00,37.1,29.5,30.01,NNE,23,0.2,0.7,74,0.00,,,0.00,WUHU216HW,2013-05-30 12:15:00,
2013-05-30 05:20:00,37.1,29.5,30.02,NNE,23,0.4,0.7,74,0.00,,,0.00,WUHU216HW,2013-05-30 12:20:00,
2013-05-30 05:25:00,36.9,29.3,30.02,NNE,23,0.2,0.7,74,0.00,,,0.00,WUHU216HW,2013-05-30 12:25:00,
2013-05-30 05:31:00,36.7,29.2,30.02,WNW,293,0.7,0.7,74,0.00,,,0.00,WUHU216HW,2013-05-30 12:31:00,
2013-05-30 05:36:00,36.4,28.5,30.02,North,0,0.2,0.7,73,0.00,,,0.00,WUHU216HW,2013-05-30 12:36:00,
2013-05-30 05:41:00,36.2,28.6,30.02,NNW,338,0.0,0.7,74,0.00,,,0.00,WUHU216HW,2013-05-30 12:41:00,
2013-05-30 05:46:00,36.0,28.4,30.02,NW,315,0.2,0.4,74,0.00,,,0.00,WUHU216HW,2013-05-30 12:46:00,
2013-05-30 05:51:00,36.0,28.4,30.02,NW,315,0.2,0.4,74,0.00,,,0.00,WUHU216HW,2013-05-30 12:51:00,
2013-05-30 05:56:00,35.8,28.6,30.02,West,270,0.4,1.1,75,0.00,,,0.00,WUHU216HW,2013-05-30 12:56:00,
2013-05-30 06:01:00,35.6,28.4,30.02,West,270,1.8,1.8,75,0.00,,,0.00,WUHU216HW,2013-05-30 13:01:00,
2013-05-30 06:06:00,35.6,28.8,30.02,WSW,248,1.3,2.5,76,0.00,,,0.00,WUHU216HW,2013-05-30 13:06:00,
2013-05-30 06:11:00,35.6,28.4,30.03,SSW,203,0.4,2.5,75,0.00,,,0.00,WUHU216HW,2013-05-30 13:11:00,
2013-05-30 06:16:00,35.6,28.4,30.03,WSW,248,1.3,1.3,75,0.00,,,0.00,WUHU216HW,2013-05-30 13:16:00,
2013-05-30 06:21:00,35.5,28.3,30.03,NW,315,0.9,1.3,75,0.00,,,0.00,WUHU216HW,2013-05-30 13:21:00,
2013-05-30 06:26:00,34.9,28.4,30.02,West,270,0.7,1.1,77,0.00,,,0.00,WUHU216HW,2013-05-30 13:26:00,
2013-05-30 06:31:00,34.9,28.7,30.02,WSW,248,0.9,1.1,78,0.00,,,0.00,WUHU216HW,2013-05-30 13:31:00,
2013-05-30 06:36:00,34.9,28.4,30.03,West,270,2.2,2.5,77,0.00,,,0.00,WUHU216HW,2013-05-30 13:36:00,
2013-05-30 06:41:00,34.9,28.4,30.02,WSW,248,2.5,2.5,77,0.00,,,0.00,WUHU216HW,2013-05-30 13:41:00,
2013-05-30 06:46:00,35.1,28.5,30.03,WSW,248,1.8,2.5,77,0.00,,,0.00,WUHU216HW,2013-05-30 13:46:00,
2013-05-30 06:51:00,35.3,28.7,30.03,WSW,248,0.9,2.9,77,0.00,,,0.00,WUHU216HW,2013-05-30 13:51:00,
2013-05-30 06:57:00,35.6,29.4,30.03,WSW,248,1.1,2.9,78,0.00,,,0.00,WUHU216HW,2013-05-30 13:57:00,
2013-05-30 07:02:00,35.8,29.6,30.03,WSW,248,1.8,2.2,78,0.00,,,0.00,WUHU216HW,2013-05-30 14:02:00,
2013-05-30 07:06:00,36.2,29.6,30.03,WSW,248,1.8,3.8,77,0.00,,,0.00,WUHU216HW,2013-05-30 14:06:00,
2013-05-30 07:11:00,36.4,29.8,30.03,SW,225,4.0,4.0,77,0.00,,,0.00,WUHU216HW,2013-05-30 14:11:00,
2013-05-30 07:16:00,36.9,30.3,30.03,West,270,3.4,6.3,77,0.00,,,0.00,WUHU216HW,2013-05-30 14:16:00,
2013-05-30 07:21:00,37.3,30.7,30.03,West,270,4.5,6.3,77,0.00,,,0.00,WUHU216HW,2013-05-30 14:21:00,
2013-05-30 07:27:00,37.6,30.8,30.03,West,270,2.5,5.4,76,0.00,,,0.00,WUHU216HW,2013-05-30 14:27:00,
2013-05-30 07:32:00,38.0,31.4,30.03,SW,225,2.5,3.8,77,0.00,,,0.00,WUHU216HW,2013-05-30 14:32:00,
2013-05-30 07:37:00,38.3,31.4,30.03,SW,225,4.3,4.5,76,0.00,,,0.00,WUHU216HW,2013-05-30 14:37:00,
2013-05-30 07:42:00,38.7,31.4,30.04,SW,225,2.0,4.5,75,0.00,,,0.00,WUHU216HW,2013-05-30 14:42:00,
2013-05-30 07:47:00,39.1,31.8,30.04,SW,225,2.2,4.7,75,0.00,,,0.00,WUHU216HW,2013-05-30 14:47:00,
2013-05-30 07:52:00,39.4,31.8,30.04,SSW,203,2.7,4.7,74,0.00,,,0.00,WUHU216HW,2013-05-30 14:52:00,
2013-05-30 07:57:00,39.8,32.1,30.04,WSW,248,4.3,4.5,74,0.00,,,0.00,WUHU216HW,2013-05-30 14:57:00,
2013-05-30 08:02:00,40.0,32.0,30.04,SSW,203,3.6,4.3,73,0.00,,,0.00,WUHU216HW,2013-05-30 15:02:00,
2013-05-30 08:07:00,40.3,32.0,30.04,SSW,203,5.1,5.1,72,0.00,,,0.00,WUHU216HW,2013-05-30 15:07:00,
2013-05-30 08:12:00,40.7,32.1,30.04,West,270,2.9,5.1,71,0.00,,,0.00,WUHU216HW,2013-05-30 15:12:00,
2013-05-30 08:17:00,40.9,32.2,30.04,WSW,248,6.0,6.0,71,0.00,,,0.00,WUHU216HW,2013-05-30 15:17:00,
2013-05-30 08:22:00,41.2,32.2,30.04,WNW,293,1.8,6.0,70,0.00,,,0.00,WUHU216HW,2013-05-30 15:22:00,
2013-05-30 08:27:00,41.6,32.6,30.04,SW,225,1.1,5.1,70,0.00,,,0.00,WUHU216HW,2013-05-30 15:27:00,
2013-05-30 08:32:00,41.8,32.8,30.04,SW,225,2.5,5.1,70,0.00,,,0.00,WUHU216HW,2013-05-30 15:32:00,
2013-05-30 08:37:00,42.3,33.3,30.05,SSE,158,1.8,3.6,70,0.00,,,0.00,WUHU216HW,2013-05-30 15:37:00,
2013-05-30 08:42:00,42.7,33.7,30.04,SW,225,4.7,4.7,70,0.00,,,0.00,WUHU216HW,2013-05-30 15:42:00,
2013-05-30 08:47:00,43.0,33.6,30.05,SW,225,3.1,6.3,69,0.00,,,0.00,WUHU216HW,2013-05-30 15:47:00,
2013-05-30 08:52:00,43.4,33.6,30.05,West,270,1.3,6.3,68,0.00,,,0.00,WUHU216HW,2013-05-30 15:52:00,
2013-05-30 08:58:00,43.6,33.8,30.05,South,180,3.6,4.5,68,0.00,,,0.00,WUHU216HW,2013-05-30 15:58:00,
2013-05-30 09:03:00,43.9,34.0,30.05,SE,135,0.2,4.5,68,0.00,,,0.00,WUHU216HW,2013-05-30 16:03:00,
2013-05-30 09:08:00,44.5,34.2,30.05,SSW,203,3.1,4.9,67,0.00,,,0.00,WUHU216HW,2013-05-30 16:08:00,
2013-05-30 09:13:00,44.8,34.5,30.05,South,180,4.3,4.9,67,0.00,,,0.00,WUHU216HW,2013-05-30 16:13:00,
2013-05-30 09:18:00,45.4,34.7,30.05,SE,135,3.4,4.3,66,0.00,,,0.00,WUHU216HW,2013-05-30 16:18:00,
2013-05-30 09:23:00,45.7,34.6,30.05,SSW,203,3.6,4.7,65,0.00,,,0.00,WUHU216HW,2013-05-30 16:23:00,
2013-05-30 09:28:00,46.1,34.6,30.05,SSE,158,2.2,4.7,64,0.00,,,0.00,WUHU216HW,2013-05-30 16:28:00,
2013-05-30 09:33:00,46.4,34.5,30.05,SSW,203,0.2,4.0,63,0.00,,,0.00,WUHU216HW,2013-05-30 16:33:00,
2013-05-30 09:38:00,46.1,32.0,30.05,SW,225,1.1,2.9,58,0.00,,,0.00,WUHU216HW,2013-05-30 16:38:00,
2013-05-30 09:43:00,46.3,31.8,30.05,NE,45,0.7,3.4,57,0.00,,,0.00,WUHU216HW,2013-05-30 16:43:00,
2013-05-30 09:48:00,46.3,33.6,30.05,SSE,158,3.1,3.6,61,0.00,,,0.00,WUHU216HW,2013-05-30 16:48:00,
2013-05-30 09:53:00,47.0,34.2,30.05,NNE,23,2.0,3.6,61,0.00,,,0.00,WUHU216HW,2013-05-30 16:53:00,
2013-05-30 09:58:00,47.3,34.6,30.05,ESE,113,2.5,3.4,61,0.00,,,0.00,WUHU216HW,2013-05-30 16:58:00,
2013-05-30 10:03:00,47.9,35.1,30.05,SE,135,3.6,3.6,61,0.00,,,0.00,WUHU216HW,2013-05-30 17:03:00,
2013-05-30 10:08:00,48.6,35.5,30.05,SE,135,0.9,4.0,60,0.00,,,0.00,WUHU216HW,2013-05-30 17:08:00,
2013-05-30 10:13:00,48.6,34.5,30.05,SSE,158,0.7,4.0,58,0.00,,,0.00,WUHU216HW,2013-05-30 17:13:00,
2013-05-30 10:18:00,48.6,34.9,30.05,WSW,248,0.4,2.2,59,0.00,,,0.00,WUHU216HW,2013-05-30 17:18:00,
2013-05-30 10:23:00,49.1,34.6,30.05,WSW,248,1.8,2.5,57,0.00,,,0.00,WUHU216HW,2013-05-30 17:23:00,
2013-05-30 10:28:00,49.5,35.3,30.05,East,90,1.8,2.9,58,0.00,,,0.00,WUHU216HW,2013-05-30 17:28:00,
2013-05-30 10:33:00,50.0,35.4,30.05,SSE,158,3.1,4.0,57,0.00,,,0.00,WUHU216HW,2013-05-30 17:33:00,
2013-05-30 10:38:00,50.2,35.1,30.05,ENE,68,3.4,4.0,56,0.00,,,0.00,WUHU216HW,2013-05-30 17:38:00,
2013-05-30 10:43:00,50.2,34.2,30.05,SE,135,2.5,3.8,54,0.00,,,0.00,WUHU216HW,2013-05-30 17:43:00,
2013-05-30 10:48:00,50.4,34.4,30.05,ENE,68,2.9,4.5,54,0.00,,,0.00,WUHU216HW,2013-05-30 17:48:00,
2013-05-30 10:53:00,50.8,35.1,30.05,ENE,68,1.6,4.5,55,0.00,,,0.00,WUHU216HW,2013-05-30 17:53:00,
2013-05-30 10:58:00,50.8,34.7,30.05,NE,45,1.8,4.5,54,0.00,,,0.00,WUHU216HW,2013-05-30 17:58:00,
2013-05-30 11:03:00,50.8,35.1,30.05,NE,45,0.4,4.5,55,0.00,,,0.00,WUHU216HW,2013-05-30 18:03:00,
2013-05-30 11:08:00,50.8,35.1,30.05,WSW,248,0.4,4.7,55,0.00,,,0.00,WUHU216HW,2013-05-30 18:08:00,
2013-05-30 11:13:00,50.9,34.4,30.05,SW,225,0.4,5.4,53,0.00,,,0.00,WUHU216HW,2013-05-30 18:13:00,
2013-05-30 11:18:00,51.3,34.3,30.05,ESE,113,2.0,5.4,52,0.00,,,0.00,WUHU216HW,2013-05-30 18:18:00,
2013-05-30 11:23:00,51.5,34.4,30.06,SE,135,2.5,5.4,52,0.00,,,0.00,WUHU216HW,2013-05-30 18:23:00,
2013-05-30 11:29:00,51.7,34.6,30.06,ENE,68,1.6,6.7,52,0.00,,,0.00,WUHU216HW,2013-05-30 18:29:00,
2013-05-30 11:34:00,51.5,32.9,30.06,WNW,293,1.8,6.7,49,0.00,,,0.00,WUHU216HW,2013-05-30 18:34:00,
2013-05-30 11:39:00,51.3,33.9,30.05,ENE,68,0.0,3.1,51,0.00,,,0.00,WUHU216HW,2013-05-30 18:39:00,
2013-05-30 11:44:00,51.5,33.9,30.05,North,0,4.3,4.3,51,0.00,,,0.00,WUHU216HW,2013-05-30 18:44:00,
2013-05-30 11:49:00,51.8,34.3,30.05,South,180,0.7,4.3,51,0.00,,,0.00,WUHU216HW,2013-05-30 18:49:00,
2013-05-30 11:54:00,52.6,34.5,30.06,SW,225,1.1,4.7,50,0.00,,,0.00,WUHU216HW,2013-05-30 18:54:00,
2013-05-30 11:59:00,52.9,34.3,30.05,NW,315,1.1,4.7,49,0.00,,,0.00,WUHU216HW,2013-05-30 18:59:00,
2013-05-30 12:04:00,53.1,33.8,30.05,SW,225,1.3,4.0,48,0.00,,,0.00,WUHU216HW,2013-05-30 19:04:00,
2013-05-30 12:09:00,54.0,35.8,30.05,SE,135,6.3,7.2,50,0.00,,,0.00,WUHU216HW,2013-05-30 19:09:00,
2013-05-30 12:14:00,55.1,35.6,30.05,NW,315,1.1,7.6,48,0.00,,,0.00,WUHU216HW,2013-05-30 19:14:00,
2013-05-30 12:19:00,55.1,34.6,30.05,ESE,113,2.5,7.6,46,0.00,,,0.00,WUHU216HW,2013-05-30 19:19:00,
2013-05-30 12:24:00,54.9,35.5,30.05,East,90,3.1,4.0,48,0.00,,,0.00,WUHU216HW,2013-05-30 19:24:00,
2013-05-30 12:29:00,54.9,35.5,30.04,SSW,203,0.7,4.0,48,0.00,,,0.00,WUHU216HW,2013-05-30 19:29:00,
2013-05-30 12:34:00,54.0,33.6,30.05,East,90,2.7,4.0,46,0.00,,,0.00,WUHU216HW,2013-05-30 19:34:00,
2013-05-30 12:39:00,53.8,34.5,30.04,SE,135,2.5,2.9,48,0.00,,,0.00,WUHU216HW,2013-05-30 19:39:00,
2013-05-30 12:44:00,54.0,34.7,30.04,North,0,4.3,4.3,48,0.00,,,0.00,WUHU216HW,2013-05-30 19:44:00,
2013-05-30 12:49:00,54.4,34.5,30.04,NNE,23,3.6,4.3,47,0.00,,,0.00,WUHU216HW,2013-05-30 19:49:00,
2013-05-30 12:54:00,54.9,35.5,30.04,East,90,3.1,4.0,48,0.00,,,0.00,WUHU216HW,2013-05-30 19:54:00,
2013-05-30 12:59:00,55.3,34.7,30.04,SE,135,2.2,3.4,46,0.00,,,0.00,WUHU216HW,2013-05-30 19:59:00,
2013-05-30 13:04:00,55.1,35.6,30.05,SE,135,2.2,3.6,48,0.00,,,0.00,WUHU216HW,2013-05-30 20:04:00,
2013-05-30 13:09:00,55.1,36.2,30.05,ESE,113,3.4,5.1,49,0.00,,,0.00,WUHU216HW,2013-05-30 20:09:00,
2013-05-30 13:14:00,55.4,35.4,30.05,East,90,1.1,5.1,47,0.00,,,0.00,WUHU216HW,2013-05-30 20:14:00,
2013-05-30 13:19:00,56.0,36.5,30.05,NE,45,4.7,5.4,48,0.00,,,0.00,WUHU216HW,2013-05-30 20:19:00,
2013-05-30 13:24:00,55.6,34.5,30.05,NE,45,5.8,5.8,45,0.00,,,0.00,WUHU216HW,2013-05-30 20:24:00,
2013-05-30 13:29:00,55.6,34.5,30.05,WNW,293,2.2,5.8,45,0.00,,,0.00,WUHU216HW,2013-05-30 20:29:00,
2013-05-30 13:34:00,56.3,34.6,30.05,WNW,293,3.8,4.3,44,0.00,,,0.00,WUHU216HW,2013-05-30 20:34:00,
2013-05-30 13:39:00,57.1,35.3,30.05,NW,315,0.7,4.7,44,0.00,,,0.00,WUHU216HW,2013-05-30 20:39:00,
2013-05-30 13:44:00,57.4,34.5,30.05,ENE,68,9.2,9.2,42,0.00,,,0.00,WUHU216HW,2013-05-30 20:44:00,
2013-05-30 13:49:00,56.9,32.8,30.05,WNW,293,4.5,9.2,40,0.00,,,0.00,WUHU216HW,2013-05-30 20:49:00,
2013-05-30 13:54:00,56.2,33.3,30.05,SSW,203,1.8,6.7,42,0.00,,,0.00,WUHU216HW,2013-05-30 20:54:00,
2013-05-30 13:59:00,56.7,35.5,30.05,NW,315,1.3,6.7,45,0.00,,,0.00,WUHU216HW,2013-05-30 20:59:00,
2013-05-30 14:04:00,57.1,34.1,30.05,NE,45,2.7,4.5,42,0.00,,,0.00,WUHU216HW,2013-05-30 21:04:00,
2013-05-30 14:09:00,57.1,34.7,30.05,WSW,248,2.5,4.7,43,0.00,,,0.00,WUHU216HW,2013-05-30 21:09:00,
2013-05-30 14:14:00,57.4,33.8,30.05,NW,315,4.0,4.7,41,0.00,,,0.00,WUHU216HW,2013-05-30 21:14:00,
2013-05-30 14:19:00,57.2,33.1,30.05,West,270,1.6,4.5,40,0.00,,,0.00,WUHU216HW,2013-05-30 21:19:00,
2013-05-30 14:24:00,56.7,33.2,30.05,SW,225,2.5,4.5,41,0.00,,,0.00,WUHU216HW,2013-05-30 21:24:00,
2013-05-30 14:29:00,57.2,34.8,30.05,ENE,68,7.2,7.2,43,0.00,,,0.00,WUHU216HW,2013-05-30 21:29:00,
2013-05-30 14:34:00,57.8,35.9,30.05,NNE,23,1.8,7.8,44,0.00,,,0.00,WUHU216HW,2013-05-30 21:34:00,
2013-05-30 14:39:00,58.3,35.8,30.06,NNE,23,6.9,9.6,43,0.00,,,0.00,WUHU216HW,2013-05-30 21:39:00,
2013-05-30 14:44:00,58.1,34.5,30.06,NW,315,6.3,9.6,41,0.00,,,0.00,WUHU216HW,2013-05-30 21:44:00,
2013-05-30 14:50:00,58.0,35.5,30.06,West,270,1.6,6.3,43,0.00,,,0.00,WUHU216HW,2013-05-30 21:50:00,
2013-05-30 14:55:00,58.1,35.1,30.06,SSE,158,1.1,6.3,42,0.00,,,0.00,WUHU216HW,2013-05-30 21:55:00,
2013-05-30 15:00:00,58.3,35.3,30.06,NE,45,4.5,5.8,42,0.00,,,0.00,WUHU216HW,2013-05-30 22:00:00,
2013-05-30 15:05:00,58.3,36.4,30.05,WNW,293,0.7,7.6,44,0.00,,,0.00,WUHU216HW,2013-05-30 22:05:00,
2013-05-30 15:10:00,58.7,36.7,30.06,WNW,293,3.4,7.6,44,0.00,,,0.00,WUHU216HW,2013-05-30 22:10:00,
2013-05-30 15:15:00,59.0,35.3,30.06,NNW,338,8.1,8.1,41,0.00,,,0.00,WUHU216HW,2013-05-30 22:15:00,
2013-05-30 15:20:00,57.6,34.6,30.06,NW,315,6.3,8.1,42,0.00,,,0.00,WUHU216HW,2013-05-30 22:20:00,
2013-05-30 15:25:00,57.6,35.2,30.06,WNW,293,4.9,8.1,43,0.00,,,0.00,WUHU216HW,2013-05-30 22:25:00,
2013-05-30 15:30:00,58.0,36.1,30.06,NW,315,0.7,4.9,44,0.00,,,0.00,WUHU216HW,2013-05-30 22:30:00,
2013-05-30 15:35:00,58.7,36.7,30.06,NE,45,2.7,4.0,44,0.00,,,0.00,WUHU216HW,2013-05-30 22:35:00,
2013-05-30 15:40:00,58.9,35.7,30.06,WNW,293,5.4,5.4,42,0.00,,,0.00,WUHU216HW,2013-05-30 22:40:00,
2013-05-30 15:45:00,58.7,35.6,30.06,North,0,6.0,6.0,42,0.00,,,0.00,WUHU216HW,2013-05-30 22:45:00,
2013-05-30 15:50:00,59.0,35.9,30.07,ENE,68,3.8,6.0,42,0.00,,,0.00,WUHU216HW,2013-05-30 22:50:00,
2013-05-30 15:55:00,59.9,36.1,30.07,North,0,3.1,9.8,41,0.00,,,0.00,WUHU216HW,2013-05-30 22:55:00,
2013-05-30 16:00:00,60.5,37.2,30.07,NE,45,4.9,9.8,42,0.00,,,0.00,WUHU216HW,2013-05-30 23:00:00,
2013-05-30 16:05:00,60.1,35.0,30.06,NE,45,3.6,7.6,39,0.00,,,0.00,WUHU216HW,2013-05-30 23:05:00,
2013-05-30 16:10:00,60.3,36.5,30.06,SSW,203,0.9,7.4,41,0.00,,,0.00,WUHU216HW,2013-05-30 23:10:00,
2013-05-30 16:15:00,60.5,35.3,30.07,WNW,293,4.0,6.9,39,0.00,,,0.00,WUHU216HW,2013-05-30 23:15:00,
2013-05-30 16:20:00,60.3,36.5,30.07,NE,45,6.9,6.9,41,0.00,,,0.00,WUHU216HW,2013-05-30 23:20:00,
2013-05-30 16:25:00,61.0,36.6,30.07,South,180,1.3,8.5,40,0.00,,,0.00,WUHU216HW,2013-05-30 23:25:00,
2013-05-30 16:30:00,61.2,36.7,30.07,NNE,23,6.0,8.5,40,0.00,,,0.00,WUHU216HW,2013-05-30 23:30:00,
2013-05-30 16:35:00,60.1,35.0,30.07,NNW,338,2.7,6.9,39,0.00,,,0.00,WUHU216HW,2013-05-30 23:35:00,
2013-05-30 16:40:00,58.9,35.2,30.07,WNW,293,3.1,7.6,41,0.00,,,0.00,WUHU216HW,2013-05-30 23:40:00,
2013-05-30 16:45:00,60.5,35.3,30.07,WNW,293,1.6,7.6,39,0.00,,,0.00,WUHU216HW,2013-05-30 23:45:00,
2013-05-30 16:50:00,61.2,35.3,30.07,NNW,338,6.5,6.5,38,0.00,,,0.00,WUHU216HW,2013-05-30 23:50:00,
2013-05-30 16:55:00,62.1,36.8,30.07,NE,45,2.5,9.2,39,0.00,,,0.00,WUHU216HW,2013-05-30 23:55:00,
2013-05-30 17:00:00,64.4,37.4,30.07,SE,135,1.8,9.2,37,0.00,,,0.00,WUHU216HW,2013-05-31 00:00:00,
2013-05-30 17:05:00,65.3,36.8,30.07,West,270,4.3,7.6,35,0.00,,,0.00,WUHU216HW,2013-05-31 00:05:00,
2013-05-30 17:11:00,65.0,35.7,30.07,NE,45,3.8,12.1,34,0.00,,,0.00,WUHU216HW,2013-05-31 00:11:00,
2013-05-30 17:16:00,65.9,36.5,30.07,ENE,68,2.7,12.1,34,0.00,,,0.00,WUHU216HW,2013-05-31 00:16:00,
2013-05-30 17:21:00,66.2,36.9,30.08,ENE,68,4.3,9.2,34,0.00,,,0.00,WUHU216HW,2013-05-31 00:21:00,
2013-05-30 17:26:00,65.9,37.3,30.07,NNW,338,5.1,9.2,35,0.00,,,0.00,WUHU216HW,2013-05-31 00:26:00,
2013-05-30 17:31:00,65.5,36.3,30.07,NE,45,2.7,6.9,34,0.00,,,0.00,WUHU216HW,2013-05-31 00:31:00,
2013-05-30 17:36:00,64.6,35.5,30.07,ENE,68,2.7,6.9,34,0.00,,,0.00,WUHU216HW,2013-05-31 00:36:00,
2013-05-30 17:41:00,63.9,34.8,30.08,ENE,68,5.6,6.3,34,0.00,,,0.00,WUHU216HW,2013-05-31 00:41:00,
2013-05-30 17:46:00,62.5,33.5,30.08,NW,315,2.5,6.3,34,0.00,,,0.00,WUHU216HW,2013-05-31 00:46:00,
2013-05-30 17:51:00,59.4,32.9,30.08,NNW,338,4.7,6.7,37,0.00,,,0.00,WUHU216HW,2013-05-31 00:51:00,
2013-05-30 17:56:00,58.5,33.6,30.08,WSW,248,1.3,6.7,39,0.00,,,0.00,WUHU216HW,2013-05-31 00:56:00,
2013-05-30 18:01:00,58.3,32.7,30.08,WNW,293,5.4,6.0,38,0.00,,,0.00,WUHU216HW,2013-05-31 01:01:00,
2013-05-30 18:06:00,57.2,31.7,30.09,NNW,338,11.9,11.9,38,0.00,,,0.00,WUHU216HW,2013-05-31 01:06:00,
2013-05-30 18:11:00,56.3,32.3,30.09,NNW,338,4.5,11.9,40,0.00,,,0.00,WUHU216HW,2013-05-31 01:11:00,
2013-05-30 18:16:00,55.8,31.9,30.09,NNW,338,1.1,7.2,40,0.00,,,0.00,WUHU216HW,2013-05-31 01:16:00,
2013-05-30 18:21:00,55.4,32.0,30.09,East,90,1.8,7.2,41,0.00,,,0.00,WUHU216HW,2013-05-31 01:21:00,
2013-05-30 18:26:00,55.4,33.2,30.09,NE,45,2.2,6.0,43,0.00,,,0.00,WUHU216HW,2013-05-31 01:26:00,
2013-05-30 18:31:00,55.4,32.6,30.09,WSW,248,1.8,5.4,42,0.00,,,0.00,WUHU216HW,2013-05-31 01:31:00,
2013-05-30 18:36:00,54.9,32.1,30.09,North,0,4.0,5.4,42,0.00,,,0.00,WUHU216HW,2013-05-31 01:36:00,
2013-05-30 18:41:00,54.9,32.1,30.09,NNW,338,1.3,5.4,42,0.00,,,0.00,WUHU216HW,2013-05-31 01:41:00,
2013-05-30 18:46:00,55.6,33.3,30.09,West,270,4.3,4.7,43,0.00,,,0.00,WUHU216HW,2013-05-31 01:46:00,
2013-05-30 18:51:00,55.4,33.2,30.09,WNW,293,4.3,4.3,43,0.00,,,0.00,WUHU216HW,2013-05-31 01:51:00,
2013-05-30 18:56:00,55.1,32.3,30.09,WNW,293,6.9,6.9,42,0.00,,,0.00,WUHU216HW,2013-05-31 01:56:00,
2013-05-30 19:01:00,54.5,32.4,30.09,NE,45,4.0,6.9,43,0.00,,,0.00,WUHU216HW,2013-05-31 02:01:00,
2013-05-30 19:06:00,54.0,33.0,30.10,West,270,1.1,6.3,45,0.00,,,0.00,WUHU216HW,2013-05-31 02:06:00,
2013-05-30 19:11:00,53.8,32.9,30.10,SSE,158,0.9,6.3,45,0.00,,,0.00,WUHU216HW,2013-05-31 02:11:00,
2013-05-30 19:16:00,53.8,32.3,30.10,NW,315,5.4,6.7,44,0.00,,,0.00,WUHU216HW,2013-05-31 02:16:00,
2013-05-30 19:21:00,53.3,31.8,30.10,SSW,203,1.8,6.7,44,0.00,,,0.00,WUHU216HW,2013-05-31 02:21:00,
2013-05-30 19:26:00,53.1,32.8,30.11,West,270,2.0,4.7,46,0.00,,,0.00,WUHU216HW,2013-05-31 02:26:00,
2013-05-30 19:31:00,53.1,32.8,30.11,NNW,338,0.9,4.7,46,0.00,,,0.00,WUHU216HW,2013-05-31 02:31:00,
2013-05-30 19:36:00,53.1,32.2,30.11,West,270,3.4,3.6,45,0.00,,,0.00,WUHU216HW,2013-05-31 02:36:00,
2013-05-30 19:41:00,52.6,32.2,30.11,NW,315,0.9,4.3,46,0.00,,,0.00,WUHU216HW,2013-05-31 02:41:00,
2013-05-30 19:46:00,52.0,31.8,30.11,North,0,1.3,4.3,46,0.00,,,0.00,WUHU216HW,2013-05-31 02:46:00,
2013-05-30 19:51:00,51.7,31.4,30.11,NW,315,0.9,3.4,46,0.00,,,0.00,WUHU216HW,2013-05-31 02:51:00,
2013-05-30 19:56:00,51.5,32.4,30.12,North,0,1.8,3.4,48,0.00,,,0.00,WUHU216HW,2013-05-31 02:56:00,
2013-05-30 20:02:00,51.1,32.0,30.12,SSE,158,1.1,2.9,48,0.00,,,0.00,WUHU216HW,2013-05-31 03:02:00,
2013-05-30 20:07:00,50.8,32.3,30.12,SSW,203,2.5,2.9,49,0.00,,,0.00,WUHU216HW,2013-05-31 03:07:00,
2013-05-30 20:12:00,50.0,32.2,30.12,WNW,293,4.5,5.6,50,0.00,,,0.00,WUHU216HW,2013-05-31 03:12:00,
2013-05-30 20:17:00,49.7,31.9,30.12,NW,315,1.1,5.6,50,0.00,,,0.00,WUHU216HW,2013-05-31 03:17:00,
2013-05-30 20:22:00,49.7,32.3,30.12,WNW,293,1.1,3.4,51,0.00,,,0.00,WUHU216HW,2013-05-31 03:22:00,
2013-05-30 20:27:00,49.5,32.1,30.12,NW,315,2.2,3.4,51,0.00,,,0.00,WUHU216HW,2013-05-31 03:27:00,
2013-05-30 20:32:00,49.3,32.4,30.12,NW,315,1.1,2.2,52,0.00,,,0.00,WUHU216HW,2013-05-31 03:32:00,
2013-05-30 20:37:00,49.1,32.2,30.12,West,270,1.1,1.3,52,0.00,,,0.00,WUHU216HW,2013-05-31 03:37:00,
2013-05-30 20:42:00,48.8,32.3,30.12,North,0,0.9,3.1,53,0.00,,,0.00,WUHU216HW,2013-05-31 03:42:00,
2013-05-30 20:47:00,48.6,31.7,30.13,WNW,293,0.7,3.1,52,0.00,,,0.00,WUHU216HW,2013-05-31 03:47:00,
2013-05-30 20:52:00,48.6,31.7,30.12,WNW,293,0.0,1.8,52,0.00,,,0.00,WUHU216HW,2013-05-31 03:52:00,
2013-05-30 20:57:00,48.6,32.1,30.13,WNW,293,0.2,1.3,53,0.00,,,0.00,WUHU216HW,2013-05-31 03:57:00,
2013-05-30 21:01:00,48.2,32.3,30.13,WSW,248,1.1,1.3,54,0.00,,,0.00,WUHU216HW,2013-05-31 04:01:00,
2013-05-30 21:02:00,48.2,31.9,30.13,West,270,1.1,1.3,53,0.00,,,0.00,WUHU216HW,2013-05-31 04:02:00,
2013-05-30 21:07:00,47.9,32.4,30.13,NW,315,0.2,1.1,55,0.00,,,0.00,WUHU216HW,2013-05-31 04:07:00,
2013-05-30 21:12:00,47.7,32.7,30.13,WSW,248,1.6,1.6,56,0.00,,,0.00,WUHU216HW,2013-05-31 04:12:00,
2013-05-30 21:17:00,47.2,32.7,30.13,NW,315,0.4,2.2,57,0.00,,,0.00,WUHU216HW,2013-05-31 04:17:00,
2013-05-30 21:22:00,47.0,32.5,30.14,NW,315,1.6,2.2,57,0.00,,,0.00,WUHU216HW,2013-05-31 04:22:00,
2013-05-30 21:27:00,46.6,32.1,30.14,NNW,338,0.2,1.6,57,0.00,,,0.00,WUHU216HW,2013-05-31 04:27:00,
2013-05-30 21:32:00,46.4,32.4,30.14,NNE,23,2.7,2.7,58,0.00,,,0.00,WUHU216HW,2013-05-31 04:32:00,
2013-05-30 21:37:00,46.3,31.8,30.14,NNW,338,0.4,2.7,57,0.00,,,0.00,WUHU216HW,2013-05-31 04:37:00,
2013-05-30 21:42:00,46.3,32.2,30.14,NW,315,0.4,2.2,58,0.00,,,0.00,WUHU216HW,2013-05-31 04:42:00,
2013-05-30 21:47:00,45.9,32.9,30.14,North,0,0.7,2.2,60,0.00,,,0.00,WUHU216HW,2013-05-31 04:47:00,
2013-05-30 21:52:00,45.7,31.8,30.14,NE,45,1.6,2.9,58,0.00,,,0.00,WUHU216HW,2013-05-31 04:52:00,
2013-05-30 21:57:00,45.7,31.8,30.15,North,0,1.1,2.9,58,0.00,,,0.00,WUHU216HW,2013-05-31 04:57:00,
2013-05-30 22:02:00,45.9,32.9,30.15,NNE,23,0.7,1.8,60,0.00,,,0.00,WUHU216HW,2013-05-31 05:02:00,
2013-05-30 22:07:00,45.7,32.2,30.15,North,0,1.6,1.8,59,0.00,,,0.00,WUHU216HW,2013-05-31 05:07:00,
2013-05-30 22:12:00,45.7,32.2,30.15,NE,45,0.2,2.0,59,0.00,,,0.00,WUHU216HW,2013-05-31 05:12:00,
2013-05-30 22:17:00,45.7,32.2,30.15,SSW,203,0.4,2.0,59,0.00,,,0.00,WUHU216HW,2013-05-31 05:17:00,
2013-05-30 22:22:00,45.4,31.9,30.15,West,270,0.9,1.6,59,0.00,,,0.00,WUHU216HW,2013-05-31 05:22:00,
2013-05-30 22:27:00,45.0,31.6,30.15,West,270,0.2,1.6,59,0.00,,,0.00,WUHU216HW,2013-05-31 05:27:00,
2013-05-30 22:32:00,44.8,31.9,30.15,North,0,0.0,1.1,60,0.00,,,0.00,WUHU216HW,2013-05-31 05:32:00,
2013-05-30 22:37:00,44.8,31.9,30.16,SW,225,0.0,0.4,60,0.00,,,0.00,WUHU216HW,2013-05-31 05:37:00,
2013-05-30 22:42:00,44.5,31.9,30.16,WSW,248,0.0,0.4,61,0.00,,,0.00,WUHU216HW,2013-05-31 05:42:00,
2013-05-30 22:47:00,43.9,31.3,30.16,NW,315,0.2,0.2,61,0.00,,,0.00,WUHU216HW,2013-05-31 05:47:00,
2013-05-30 22:52:00,43.9,31.3,30.16,North,0,0.0,0.4,61,0.00,,,0.00,WUHU216HW,2013-05-31 05:52:00,
2013-05-30 22:57:00,43.9,31.8,30.16,NE,45,0.7,0.7,62,0.00,,,0.00,WUHU216HW,2013-05-31 05:57:00,
2013-05-30 23:02:00,44.1,32.0,30.16,ENE,68,0.4,0.7,62,0.00,,,0.00,WUHU216HW,2013-05-31 06:02:00,
2013-05-30 23:07:00,43.9,31.8,30.16,ENE,68,0.0,0.4,62,0.00,,,0.00,WUHU216HW,2013-05-31 06:07:00,
2013-05-30 23:12:00,43.6,31.4,30.16,West,270,0.0,0.4,62,0.00,,,0.00,WUHU216HW,2013-05-31 06:12:00,
2013-05-30 23:17:00,43.4,31.6,30.16,West,270,0.0,0.4,63,0.00,,,0.00,WUHU216HW,2013-05-31 06:17:00,
2013-05-30 23:22:00,43.2,31.4,30.16,North,0,0.0,0.4,63,0.00,,,0.00,WUHU216HW,2013-05-31 06:22:00,
2013-05-30 23:27:00,43.2,31.8,30.16,NNE,23,0.0,0.4,64,0.00,,,0.00,WUHU216HW,2013-05-31 06:27:00,
2013-05-30 23:32:00,43.2,31.4,30.16,NNE,23,0.9,1.3,63,0.00,,,0.00,WUHU216HW,2013-05-31 06:32:00,
2013-05-30 23:37:00,43.2,31.4,30.16,NNE,23,0.0,1.3,63,0.00,,,0.00,WUHU216HW,2013-05-31 06:37:00,
2013-05-30 23:42:00,42.8,31.5,30.16,NNW,338,0.2,0.4,64,0.00,,,0.00,WUHU216HW,2013-05-31 06:42:00,
2013-05-30 23:47:00,42.3,31.0,30.17,NNW,338,0.2,0.4,64,0.00,,,0.00,WUHU216HW,2013-05-31 06:47:00,
2013-05-30 23:52:00,41.9,31.4,30.17,NNW,338,0.0,0.4,66,0.00,,,0.00,WUHU216HW,2013-05-31 06:52:00,
2013-05-30 23:57:00,41.8,31.2,30.17,NW,315,0.2,0.4,66,0.00,,,0.00,WUHU216HW,2013-05-31 06:57:00,